createdAt,value
2018-11-11T00:01:40.935Z,42.33
2018-11-11T00:04:09.740Z,45.93
2018-11-11T00:06:38.593Z,49.57
2018-11-11T00:09:09.244Z,49.77
2018-11-11T00:11:38.041Z,52.40
2018-11-11T00:14:07.188Z,49.27
2018-11-11T00:16:35.975Z,42.63
2018-11-11T00:19:04.855Z,46.90
2018-11-11T00:21:33.699Z,43.00
2018-11-11T00:24:02.702Z,43.10
2018-11-11T00:26:31.479Z,42.37
2018-11-11T00:29:00.289Z,45.97
2018-11-11T00:31:29.141Z,45.57
2018-11-11T00:33:57.931Z,42.90
2018-11-11T00:36:26.909Z,42.47
2018-11-11T00:38:55.785Z,40.83
2018-11-11T00:41:24.603Z,46.43
2018-11-11T00:43:53.375Z,44.83
2018-11-11T00:46:22.194Z,42.93
2018-11-11T00:48:51.054Z,48.20
2018-11-11T00:51:19.886Z,46.03
2018-11-11T00:53:48.928Z,45.70
2018-11-11T00:56:17.719Z,49.77
2018-11-11T00:58:46.512Z,48.50
2018-11-11T01:01:15.342Z,50.03
2018-11-11T01:03:44.159Z,50.37
2018-11-11T01:06:13.161Z,49.47
2018-11-11T01:08:42.152Z,45.77
2018-11-11T01:11:13.807Z,48.97
2018-11-11T01:13:42.595Z,52.77
2018-11-11T01:16:11.625Z,54.70
2018-11-11T01:18:41.043Z,54.10
2018-11-11T01:21:09.895Z,56.03
2018-11-11T01:23:38.721Z,61.30
2018-11-11T01:26:07.539Z,56.83
2018-11-11T01:28:36.527Z,59.47
2018-11-11T01:31:05.945Z,55.63
2018-11-11T01:33:34.748Z,47.63
2018-11-11T01:36:03.948Z,42.40
2018-11-11T01:38:33.082Z,48.33
2018-11-11T01:41:02.151Z,43.57
2018-11-11T01:43:31.182Z,42.97
2018-11-11T01:45:59.955Z,46.60
2018-11-11T01:48:29.347Z,44.30
2018-11-11T01:50:58.480Z,50.30
2018-11-11T01:53:27.283Z,48.50
2018-11-11T01:55:56.076Z,48.73
2018-11-11T01:58:24.915Z,52.13
2018-11-11T02:00:53.699Z,51.13
2018-11-11T02:03:22.520Z,46.20
2018-11-11T02:05:51.534Z,49.93
2018-11-11T02:08:20.371Z,50.20
2018-11-11T02:10:49.164Z,46.13
2018-11-11T02:13:18.296Z,49.40
2018-11-11T02:15:47.205Z,52.53
2018-11-11T02:18:15.995Z,45.67
2018-11-11T02:20:44.779Z,55.50
2018-11-11T02:23:13.578Z,77.90
2018-11-11T02:25:42.384Z,56.43
2018-11-11T02:28:11.175Z,61.03
2018-11-11T02:30:39.959Z,56.93
2018-11-11T02:33:08.770Z,55.60
2018-11-11T02:35:37.533Z,49.30
2018-11-11T02:38:06.482Z,56.27
2018-11-11T02:40:35.597Z,57.73
2018-11-11T02:43:04.381Z,62.80
2018-11-11T02:45:33.171Z,55.53
2018-11-11T02:48:01.938Z,60.50
2018-11-11T02:50:30.707Z,56.60
2018-11-11T02:52:59.469Z,55.27
2018-11-11T02:55:28.253Z,55.53
2018-11-11T02:57:56.999Z,58.00
2018-11-11T03:00:26.135Z,52.60
2018-11-11T03:02:54.888Z,51.50
2018-11-11T03:05:23.979Z,51.77
2018-11-11T03:07:52.975Z,57.77
2018-11-11T03:10:21.748Z,53.03
2018-11-11T03:12:51.192Z,49.20
2018-11-11T03:15:20.771Z,54.77
2018-11-11T03:17:49.794Z,49.37
2018-11-11T03:20:19.172Z,46.30
2018-11-11T03:22:47.980Z,57.93
2018-11-11T03:25:17.428Z,55.70
2018-11-11T03:27:46.464Z,57.90
2018-11-11T03:30:16.645Z,48.43
2018-11-11T03:32:46.055Z,55.33
2018-11-11T03:35:15.462Z,52.33
2018-11-11T03:37:44.995Z,56.37
2018-11-11T03:40:18.303Z,61.53
2018-11-11T03:42:47.399Z,61.93
2018-11-11T03:45:17.478Z,56.60
2018-11-11T03:47:47.392Z,57.67
2018-11-11T03:50:16.522Z,59.57
2018-11-11T03:52:45.740Z,62.97
2018-11-11T03:55:14.543Z,57.43
2018-11-11T03:57:43.684Z,60.43
2018-11-11T04:00:13.769Z,59.23
2018-11-11T04:02:42.916Z,51.17
2018-11-11T04:05:13.099Z,63.33
2018-11-11T04:07:41.898Z,83.63
2018-11-11T04:10:13.487Z,95.93
2018-11-11T04:12:42.602Z,64.90
2018-11-11T04:15:14.172Z,73.80
2018-11-11T04:17:43.034Z,58.77
2018-11-11T04:20:16.709Z,58.53
2018-11-11T04:22:45.506Z,65.17
2018-11-11T04:25:15.520Z,61.57
2018-11-11T04:27:44.359Z,56.03
2018-11-11T04:30:14.209Z,58.93
2018-11-11T04:32:43.408Z,68.20
2018-11-11T04:35:12.648Z,62.10
2018-11-11T04:37:41.611Z,66.53
2018-11-11T04:40:11.375Z,55.07
2018-11-11T04:42:40.171Z,58.43
2018-11-11T04:45:11.899Z,55.00
2018-11-11T04:47:40.858Z,55.27
2018-11-11T04:50:11.218Z,58.70
2018-11-11T04:52:40.299Z,65.57
2018-11-11T04:55:09.960Z,58.93
2018-11-11T04:57:39.091Z,66.77
2018-11-11T05:00:09.315Z,61.63
2018-11-11T05:02:38.748Z,52.70
2018-11-11T05:05:08.091Z,57.10
2018-11-11T05:07:36.908Z,66.73
2018-11-11T05:10:06.397Z,62.37
2018-11-11T05:12:35.330Z,56.37
2018-11-11T05:15:04.181Z,59.53
2018-11-11T05:17:33.009Z,56.97
2018-11-11T05:20:01.879Z,53.00
2018-11-11T05:22:30.885Z,47.37
2018-11-11T05:24:59.682Z,56.77
2018-11-11T05:27:28.704Z,45.80
2018-11-11T05:29:57.495Z,37.40
2018-11-11T05:32:26.286Z,33.80
2018-11-11T05:34:55.252Z,31.43
2018-11-11T05:37:24.244Z,36.20
2018-11-11T05:39:53.034Z,38.67
2018-11-11T05:42:21.799Z,31.90
2018-11-11T05:44:50.804Z,34.43
2018-11-11T05:47:19.583Z,38.27
2018-11-11T05:49:48.394Z,41.33
2018-11-11T05:52:17.379Z,32.43
2018-11-11T05:54:46.181Z,37.40
2018-11-11T05:57:14.957Z,29.73
2018-11-11T05:59:44.548Z,32.60
2018-11-11T06:02:13.342Z,35.33
2018-11-11T06:04:42.175Z,36.50
2018-11-11T06:07:10.980Z,35.40
2018-11-11T06:09:40.003Z,36.20
2018-11-11T06:12:08.764Z,37.20
2018-11-11T06:14:37.528Z,44.47
2018-11-11T06:17:06.547Z,39.57
2018-11-11T06:19:35.337Z,38.53
2018-11-11T06:22:04.662Z,39.70
2018-11-11T06:24:33.619Z,35.93
2018-11-11T06:27:02.397Z,35.20
2018-11-11T06:29:31.149Z,29.37
2018-11-11T06:32:00.233Z,33.43
2018-11-11T06:34:29.236Z,32.17
2018-11-11T06:36:58.111Z,38.53
2018-11-11T06:39:26.868Z,33.23
2018-11-11T06:41:55.620Z,37.17
2018-11-11T06:44:24.462Z,34.87
2018-11-11T06:46:53.383Z,33.93
2018-11-11T06:49:22.144Z,38.93
2018-11-11T06:51:51.161Z,36.13
2018-11-11T06:54:19.939Z,33.17
2018-11-11T06:56:51.711Z,35.33
2018-11-11T06:59:20.704Z,33.80
2018-11-11T07:01:49.492Z,28.70
2018-11-11T07:04:18.263Z,29.80
2018-11-11T07:06:47.007Z,29.37
2018-11-11T07:09:15.873Z,29.53
2018-11-11T07:11:45.053Z,31.07
2018-11-11T07:14:13.964Z,29.17
2018-11-11T07:16:42.901Z,25.33
2018-11-11T07:19:11.683Z,19.83
2018-11-11T07:21:40.471Z,21.90
2018-11-11T07:24:09.318Z,24.87
2018-11-11T07:26:38.240Z,21.47
2018-11-11T07:29:07.369Z,24.47
2018-11-11T07:31:36.202Z,24.63
2018-11-11T07:34:05.021Z,25.83
2018-11-11T07:36:33.804Z,29.17
2018-11-11T07:39:03.160Z,24.27
2018-11-11T07:41:31.992Z,23.67
2018-11-11T07:44:00.816Z,21.47
2018-11-11T07:46:29.600Z,20.60
2018-11-11T07:48:58.445Z,20.03
2018-11-11T07:51:27.228Z,23.40
2018-11-11T07:53:56.061Z,27.47
2018-11-11T07:56:24.848Z,25.73
2018-11-11T07:58:53.620Z,24.47
2018-11-11T08:01:22.428Z,25.93
2018-11-11T08:03:51.432Z,22.13
2018-11-11T08:06:20.253Z,22.57
2018-11-11T08:08:49.101Z,20.80
2018-11-11T08:11:28.983Z,21.60
2018-11-11T08:13:57.746Z,20.77
2018-11-11T08:16:26.539Z,20.27
2018-11-11T08:18:55.567Z,19.70
2018-11-11T08:21:24.537Z,19.50
2018-11-11T08:23:53.299Z,18.30
2018-11-11T08:26:22.248Z,17.40
2018-11-11T08:28:51.024Z,17.10
2018-11-11T08:31:19.971Z,18.80
2018-11-11T08:33:48.760Z,17.00
2018-11-11T08:36:17.533Z,16.37
2018-11-11T08:38:46.290Z,15.97
2018-11-11T08:41:15.386Z,16.67
2018-11-11T08:43:44.345Z,13.20
2018-11-11T08:46:13.103Z,13.80
2018-11-11T08:48:41.855Z,16.27
2018-11-11T08:51:10.631Z,14.27
2018-11-11T08:53:39.408Z,15.37
2018-11-11T08:56:08.173Z,14.70
2018-11-11T08:58:37.279Z,14.90
2018-11-11T09:01:06.287Z,17.70
2018-11-11T09:03:35.075Z,16.37
2018-11-11T09:06:04.067Z,21.53
2018-11-11T09:08:32.992Z,16.33
2018-11-11T09:11:01.921Z,14.93
2018-11-11T09:13:30.671Z,16.33
2018-11-11T09:15:59.498Z,16.53
2018-11-11T09:18:28.316Z,17.33
2018-11-11T09:20:57.547Z,17.33
2018-11-11T09:23:26.316Z,18.33
2018-11-11T09:25:55.116Z,19.80
2018-11-11T09:28:24.064Z,18.73
2018-11-11T09:30:53.395Z,19.60
2018-11-11T09:33:22.712Z,23.00
2018-11-11T09:35:51.473Z,19.73
2018-11-11T09:38:20.248Z,17.87
2018-11-11T09:40:49.238Z,22.10
2018-11-11T09:43:19.068Z,20.23
2018-11-11T09:45:47.941Z,21.90
2018-11-11T09:48:16.716Z,19.80
2018-11-11T09:50:45.471Z,22.03
2018-11-11T09:53:14.529Z,18.30
2018-11-11T09:55:43.334Z,19.27
2018-11-11T09:58:12.178Z,18.43
2018-11-11T10:00:41.346Z,17.57
2018-11-11T10:03:14.707Z,17.30
2018-11-11T10:07:53.849Z,17.20
2018-11-11T10:10:40.563Z,18.93
2018-11-11T10:13:16.406Z,19.60
2018-11-11T10:15:50.624Z,17.80
2018-11-11T10:18:31.380Z,19.83
2018-11-11T10:21:13.350Z,21.80
2018-11-11T10:24:00.787Z,22.53
2018-11-11T10:26:34.946Z,21.33
2018-11-11T10:29:10.795Z,18.23
2018-11-11T10:31:47.774Z,19.37
2018-11-11T10:34:20.252Z,17.20
2018-11-11T10:36:53.188Z,16.80
2018-11-11T10:39:25.476Z,17.17
2018-11-11T10:41:59.505Z,18.50
2018-11-11T10:44:32.361Z,17.30
2018-11-11T10:47:06.806Z,18.03
2018-11-11T10:49:38.067Z,17.57
2018-11-11T10:52:07.058Z,16.97
2018-11-11T10:54:35.851Z,18.00
2018-11-11T10:57:04.917Z,19.57
2018-11-11T10:59:33.759Z,15.70
2018-11-11T11:02:07.949Z,26.03
2018-11-11T11:04:40.980Z,25.80
2018-11-11T11:07:09.751Z,28.37
2018-11-11T11:09:38.609Z,16.83
2018-11-11T11:12:08.279Z,23.87
2018-11-11T11:14:37.079Z,28.30
2018-11-11T11:17:05.851Z,17.40
2018-11-11T11:19:34.657Z,15.60
2018-11-11T11:22:03.461Z,15.10
2018-11-11T11:24:32.233Z,13.10
2018-11-11T11:27:01.280Z,16.03
2018-11-11T11:29:30.243Z,13.83
2018-11-11T11:31:59.439Z,14.87
2018-11-11T11:34:28.400Z,13.23
2018-11-11T11:36:57.417Z,13.70
2018-11-11T11:39:26.196Z,14.87
2018-11-11T11:41:55.035Z,12.97
2018-11-11T11:44:23.989Z,14.83
2018-11-11T11:46:52.768Z,16.17
2018-11-11T11:49:21.751Z,21.90
2018-11-11T11:51:50.765Z,27.40
2018-11-11T11:54:19.527Z,14.47
2018-11-11T11:56:48.711Z,16.73
2018-11-11T11:59:17.488Z,15.03
2018-11-11T12:01:46.482Z,19.50
2018-11-11T12:04:15.399Z,13.27
2018-11-11T12:06:44.220Z,14.20
2018-11-11T12:09:13.097Z,14.10
2018-11-11T12:11:41.993Z,16.37
2018-11-11T12:14:10.754Z,14.67
2018-11-11T12:16:39.764Z,13.83
2018-11-11T12:19:09.056Z,15.50
2018-11-11T12:21:37.812Z,17.43
2018-11-11T12:24:07.117Z,17.27
2018-11-11T12:26:36.089Z,16.07
2018-11-11T12:29:05.451Z,14.93
2018-11-11T12:31:34.450Z,15.33
2018-11-11T12:34:03.480Z,16.90
2018-11-11T12:36:32.256Z,16.97
2018-11-11T12:39:01.113Z,14.17
2018-11-11T12:41:30.014Z,16.43
2018-11-11T12:43:58.815Z,20.20
2018-11-11T12:46:27.580Z,17.40
2018-11-11T12:48:56.397Z,22.30
2018-11-11T12:51:25.383Z,37.97
2018-11-11T12:53:54.222Z,27.03
2018-11-11T12:56:23.388Z,41.87
2018-11-11T12:58:52.178Z,40.30
2018-11-11T13:01:20.968Z,20.00
2018-11-11T13:03:49.750Z,24.17
2018-11-11T13:06:18.731Z,19.60
2018-11-11T13:08:47.599Z,20.77
2018-11-11T13:11:16.380Z,17.57
2018-11-11T13:13:45.443Z,16.20
2018-11-11T13:16:14.399Z,15.07
2018-11-11T13:18:43.242Z,14.37
2018-11-11T13:21:12.338Z,16.07
2018-11-11T13:23:41.259Z,18.03
2018-11-11T13:26:10.096Z,16.13
2018-11-11T13:28:38.983Z,15.20
2018-11-11T13:31:07.971Z,14.30
2018-11-11T13:33:36.961Z,17.17
2018-11-11T13:36:05.772Z,14.37
2018-11-11T13:38:34.714Z,14.40
2018-11-11T13:41:04.027Z,15.50
2018-11-11T13:43:32.870Z,20.47
2018-11-11T13:46:01.677Z,30.27
2018-11-11T13:48:33.691Z,24.80
2018-11-11T13:51:02.957Z,22.27
2018-11-11T13:53:32.246Z,29.07
2018-11-11T13:56:01.134Z,24.43
2018-11-11T13:58:29.915Z,30.50
2018-11-11T14:00:58.731Z,30.13
2018-11-11T14:03:27.542Z,26.30
2018-11-11T14:05:56.362Z,18.13
2018-11-11T14:08:25.319Z,15.90
2018-11-11T14:10:54.254Z,15.03
2018-11-11T14:13:23.281Z,15.00
2018-11-11T14:15:52.362Z,15.03
2018-11-11T14:18:21.439Z,16.43
2018-11-11T14:20:50.414Z,21.43
2018-11-11T14:23:19.252Z,16.70
2018-11-11T14:25:48.095Z,15.10
2018-11-11T14:28:17.079Z,18.33
2018-11-11T14:30:45.872Z,18.03
2018-11-11T14:33:14.868Z,17.80
2018-11-11T14:35:43.728Z,17.27
2018-11-11T14:38:12.777Z,21.13
2018-11-11T14:40:41.704Z,19.67
2018-11-11T14:43:10.484Z,17.67
2018-11-11T14:45:39.258Z,19.93
2018-11-11T14:48:08.316Z,20.03
2018-11-11T14:50:37.192Z,35.43
2018-11-11T14:53:06.208Z,22.37
2018-11-11T14:55:34.992Z,26.40
2018-11-11T14:58:03.905Z,22.77
2018-11-11T15:00:33.895Z,21.60
2018-11-11T15:03:05.052Z,20.33
2018-11-11T15:05:34.133Z,20.97
2018-11-11T15:08:03.403Z,19.70
2018-11-11T15:10:32.689Z,23.27
2018-11-11T15:13:01.761Z,20.80
2018-11-11T15:15:30.841Z,20.07
2018-11-11T15:18:00.685Z,22.43
2018-11-11T15:20:29.743Z,19.97
2018-11-11T15:22:58.560Z,20.03
2018-11-11T15:25:29.221Z,21.13
2018-11-11T15:27:58.433Z,23.83
2018-11-11T15:30:30.956Z,23.23
2018-11-11T15:33:00.537Z,23.30
2018-11-11T15:35:29.364Z,23.03
2018-11-11T15:37:58.524Z,22.70
2018-11-11T15:40:28.733Z,22.57
2018-11-11T15:42:58.053Z,23.77
2018-11-11T15:45:31.305Z,26.83
2018-11-11T15:48:00.478Z,25.63
2018-11-11T15:50:30.463Z,27.60
2018-11-11T15:53:00.761Z,33.00
2018-11-11T15:55:30.983Z,30.37
2018-11-11T15:57:59.820Z,35.43
2018-11-11T16:00:31.102Z,62.53
2018-11-11T16:02:59.866Z,39.50
2018-11-11T16:05:29.149Z,30.20
2018-11-11T16:07:58.652Z,29.47
2018-11-11T16:10:29.662Z,31.60
2018-11-11T16:12:58.549Z,32.53
2018-11-11T16:15:29.089Z,37.97
2018-11-11T16:18:00.847Z,43.50
2018-11-11T16:20:30.722Z,47.93
2018-11-11T16:23:00.620Z,47.77
2018-11-11T16:25:29.462Z,40.73
2018-11-11T16:27:58.396Z,35.60
2018-11-11T16:30:28.984Z,33.27
2018-11-11T16:32:58.537Z,34.17
2018-11-11T16:35:28.452Z,37.10
2018-11-11T16:37:58.190Z,41.03
2018-11-11T16:40:28.325Z,40.23
2018-11-11T16:42:58.037Z,28.77
2018-11-11T16:45:27.931Z,30.87
2018-11-11T16:47:57.044Z,32.57
2018-11-11T16:50:32.914Z,35.80
2018-11-11T16:53:03.614Z,37.67
2018-11-11T16:55:33.867Z,37.50
2018-11-11T16:58:03.148Z,38.63
2018-11-11T17:00:33.494Z,43.07
2018-11-11T17:03:03.860Z,41.53
2018-11-11T17:05:34.195Z,40.73
2018-11-11T17:08:02.956Z,41.33
2018-11-11T17:10:33.237Z,48.10
2018-11-11T17:13:03.861Z,42.20
2018-11-11T17:15:33.281Z,50.50
2018-11-11T17:18:04.036Z,52.50
2018-11-11T17:20:32.970Z,50.50
2018-11-11T17:23:03.639Z,49.67
2018-11-11T17:25:32.845Z,50.87
2018-11-11T17:28:01.686Z,51.90
2018-11-11T17:30:31.991Z,50.50
2018-11-11T17:33:01.676Z,51.03
2018-11-11T17:35:30.639Z,49.30
2018-11-11T17:37:59.547Z,54.03
2018-11-11T17:40:29.467Z,55.80
2018-11-11T17:42:58.772Z,53.83
2018-11-11T17:45:28.228Z,61.80
2018-11-11T17:47:57.235Z,56.07
2018-11-11T17:50:30.427Z,51.40
2018-11-11T17:53:00.136Z,57.97
2018-11-11T17:55:29.910Z,76.27
2018-11-11T17:57:58.869Z,82.40
2018-11-11T18:00:29.072Z,66.53
2018-11-11T18:02:58.646Z,63.30
2018-11-11T18:05:28.696Z,60.07
2018-11-11T18:07:57.891Z,64.47
2018-11-11T18:10:27.296Z,62.67
2018-11-11T18:12:56.285Z,69.63
2018-11-11T18:15:26.650Z,135.23
2018-11-11T18:17:55.499Z,75.27
2018-11-11T18:20:25.870Z,63.80
2018-11-11T18:22:55.348Z,61.13
2018-11-11T18:25:24.283Z,63.03
2018-11-11T18:27:53.214Z,70.60
2018-11-11T18:30:26.854Z,65.97
2018-11-11T18:32:56.438Z,62.60
2018-11-11T18:35:25.291Z,58.30
2018-11-11T18:37:54.117Z,54.43
2018-11-11T18:40:24.730Z,55.57
2018-11-11T18:42:53.509Z,61.07
2018-11-11T18:48:26.090Z,62.73
2018-11-11T18:50:54.930Z,52.23
2018-11-11T18:53:23.788Z,54.70
2018-11-11T18:55:52.774Z,60.03
2018-11-11T18:58:21.573Z,110.80
2018-11-11T19:00:50.723Z,114.90
2018-11-11T19:03:19.939Z,102.87
2018-11-11T19:05:48.767Z,112.70
2018-11-11T19:08:17.559Z,95.43
2018-11-11T19:10:46.628Z,65.13
2018-11-11T19:13:15.446Z,88.53
2018-11-11T19:15:44.508Z,113.43
2018-11-11T19:18:13.333Z,118.00
2018-11-11T19:20:42.447Z,116.07
2018-11-11T19:23:11.218Z,136.17
2018-11-11T19:25:40.007Z,100.43
2018-11-11T19:28:09.057Z,126.23
2018-11-11T19:30:38.407Z,179.80
2018-11-11T19:33:07.315Z,61.27
2018-11-11T19:35:36.342Z,53.90
2018-11-11T19:38:05.868Z,55.00
2018-11-11T19:40:34.885Z,49.17
2018-11-11T19:43:03.863Z,47.63
2018-11-11T19:45:32.695Z,51.27
2018-11-11T19:48:01.914Z,52.93
2018-11-11T19:50:31.139Z,58.03
2018-11-11T19:53:00.143Z,58.53
2018-11-11T19:55:29.150Z,61.20
2018-11-11T19:57:58.524Z,57.77
2018-11-11T20:00:28.719Z,61.00
2018-11-11T20:02:58.558Z,45.90
2018-11-11T20:05:27.525Z,50.73
2018-11-11T20:07:57.475Z,50.43
2018-11-11T20:10:27.529Z,54.70
2018-11-11T20:12:57.019Z,52.50
2018-11-11T20:15:27.434Z,47.80
2018-11-11T20:17:56.281Z,46.70
2018-11-11T20:20:37.152Z,54.30
2018-11-11T20:23:06.314Z,48.93
2018-11-11T20:25:35.515Z,47.57
2018-11-11T20:28:04.608Z,50.77
2018-11-11T20:30:35.553Z,47.13
2018-11-11T20:33:04.486Z,51.03
2018-11-11T20:35:33.675Z,50.87
2018-11-11T20:38:02.543Z,56.63
2018-11-11T20:40:31.674Z,52.13
2018-11-11T20:43:00.626Z,54.80
2018-11-11T20:45:30.876Z,54.87
2018-11-11T20:47:59.668Z,54.37
2018-11-11T20:50:30.140Z,56.50
2018-11-11T20:53:03.084Z,59.47
2018-11-11T20:55:32.121Z,74.37
2018-11-11T20:58:01.233Z,61.53
2018-11-11T21:00:36.436Z,60.90
2018-11-11T21:03:06.098Z,70.33
2018-11-11T21:05:34.861Z,71.83
2018-11-11T21:08:03.847Z,56.67
2018-11-11T21:10:32.656Z,62.73
2018-11-11T21:13:01.674Z,58.03
2018-11-11T21:15:31.556Z,61.67
2018-11-11T21:18:00.369Z,61.13
2018-11-11T21:20:30.700Z,52.83
2018-11-11T21:22:59.678Z,51.23
2018-11-11T21:25:28.601Z,57.33
2018-11-11T21:27:57.771Z,56.40
2018-11-11T21:30:27.852Z,58.67
2018-11-11T21:32:56.986Z,60.83
2018-11-11T21:35:26.156Z,60.60
2018-11-11T21:37:55.182Z,59.70
2018-11-11T21:40:25.415Z,60.20
2018-11-11T21:42:54.824Z,59.40
2018-11-11T21:45:24.647Z,59.30
2018-11-11T21:47:53.684Z,58.07
2018-11-11T21:50:23.643Z,55.70
2018-11-11T21:52:59.823Z,54.33
2018-11-11T21:55:29.151Z,53.47
2018-11-11T21:57:58.531Z,52.57
2018-11-11T22:00:27.655Z,53.37
2018-11-11T22:02:56.906Z,59.47
2018-11-11T22:05:25.897Z,49.70
2018-11-11T22:07:54.835Z,55.93
2018-11-11T22:10:23.619Z,54.57
2018-11-11T22:12:52.430Z,52.77
2018-11-11T22:15:21.407Z,50.80
2018-11-11T22:17:50.213Z,50.97
2018-11-11T22:20:19.058Z,52.43
2018-11-11T22:22:47.875Z,52.70
2018-11-11T22:25:18.659Z,48.23
2018-11-11T22:27:47.527Z,53.73
2018-11-11T22:30:16.483Z,52.10
2018-11-11T22:32:45.318Z,54.17
2018-11-11T22:35:14.112Z,43.70
2018-11-11T22:37:42.996Z,43.10
2018-11-11T22:40:12.899Z,43.57
2018-11-11T22:42:41.999Z,41.87
2018-11-11T22:45:14.313Z,51.80
2018-11-11T22:47:43.370Z,46.77
2018-11-11T22:50:14.119Z,50.17
2018-11-11T22:52:43.000Z,52.47
2018-11-11T22:55:12.294Z,46.30
2018-11-11T22:57:42.148Z,51.97
2018-11-11T23:00:19.389Z,47.20
2018-11-11T23:02:48.713Z,48.13
2018-11-11T23:05:18.817Z,49.10
2018-11-11T23:07:48.079Z,45.70
2018-11-11T23:10:17.018Z,50.53
2018-11-11T23:12:46.306Z,51.50
2018-11-11T23:15:16.993Z,50.40
2018-11-11T23:17:45.954Z,39.07
2018-11-11T23:20:16.509Z,50.10
2018-11-11T23:22:45.493Z,42.97
2018-11-11T23:25:15.790Z,50.50
2018-11-11T23:27:45.122Z,41.60
2018-11-11T23:30:16.744Z,47.47
2018-11-11T23:32:45.899Z,49.10
2018-11-11T23:35:15.243Z,52.10
2018-11-11T23:37:44.340Z,46.43
2018-11-11T23:40:14.615Z,47.53
2018-11-11T23:42:44.403Z,47.27
2018-11-11T23:45:13.217Z,48.23
2018-11-11T23:47:41.983Z,54.23
2018-11-11T23:50:13.631Z,49.53
2018-11-11T23:52:42.989Z,49.77
2018-11-11T23:55:13.230Z,52.30
2018-11-11T23:57:42.267Z,52.30
